^^
Datos históricos de la estación: Murcia-Puente Tocinos
Diario Informe para Enero 12, 2019 Unidades:  Inglés    Métrico   Ambas
Diario Semanal Mensual Anual Configurable
  Máximo: Mínimo: Media:
Temperatura: 58.6 °F 34.3 °F 44.8 °F
Punto de rocio: 31.8 °F 21.4 °F 25.9 °F
Humedad: 71% 27% 49%
Velocidad viento: 5.9mph 0mph 3.1mph
Racha viento: 9.2mph - -
Viento- - SSW
Presión: 30.4 in 30.3 in -
Precipitación: 0 in    
Historical Graphs
 
 
Tabla de datos para Enero 12, 2019
Hora Temperatura Punto de rocio Presión Viento Velocidad viento Racha viento Humedad Intensidad lluvia(por hora) Nubes
00:00 41.7 °F 26.8 °F 30.3 in SW 5 mph 7 mph 55% 0 in CLR
00:05 41.9 °F 26.4 °F 30.3 in SSW 4 mph 6.9 mph 54% 0 in CLR
00:10 42.1 °F 26.6 °F 30.3 in SW 5.2 mph 5.8 mph 54% 0 in CLR
00:15 42.3 °F 26.8 °F 30.3 in SW 5.2 mph 4.6 mph 54% 0 in CLR
00:20 42.3 °F 25.3 °F 30.3 in SSW 4 mph 5.9 mph 51% 0 in CLR
00:25 42.4 °F 26.4 °F 30.3 in SSW 4 mph 6.2 mph 53% 0 in CLR
00:30 42.1 °F 26.6 °F 30.3 in SSW 4.3 mph 6.9 mph 54% 0 in CLR
00:35 41.5 °F 26.1 °F 30.3 in South 4.3 mph 4.6 mph 54% 0 in CLR
00:40 41.2 °F 26.2 °F 30.3 in SSE 3.6 mph 3.5 mph 55% 0 in CLR
00:45 40.8 °F 26.8 °F 30.3 in SSE 3.6 mph 4.6 mph 57% 0 in CLR
00:50 40.1 °F 26.1 °F 30.3 in South 3.6 mph 5.8 mph 57% 0 in CLR
00:55 39.6 °F 26.4 °F 30.3 in South 3.6 mph 5.8 mph 59% 0 in CLR
01:00 39.4 °F 26.2 °F 30.3 in South 5 mph 7 mph 59% 0 in CLR
01:05 39.4 °F 26.2 °F 30.3 in SSW 4.3 mph 6.2 mph 59% 0 in CLR
01:10 39.7 °F 25.7 °F 30.3 in SW 4.7 mph 5.8 mph 57% 0 in CLR
01:15 40.1 °F 25.2 °F 30.3 in SSW 4.7 mph 5.8 mph 55% 0 in CLR
01:20 40.5 °F 25.2 °F 30.3 in SSW 4.7 mph 5.8 mph 54% 0 in CLR
01:25 40.8 °F 25 °F 30.3 in SW 4.7 mph 4.6 mph 53% 0 in CLR
01:30 40.8 °F 25 °F 30.3 in SW 4 mph 3.5 mph 53% 0 in CLR
01:35 40.8 °F 25 °F 30.3 in SW 4 mph 4.6 mph 53% 0 in CLR
01:40 40.6 °F 24.4 °F 30.3 in West 2.4 mph 4.6 mph 52% 0 in CLR
01:45 40.1 °F 23.9 °F 30.3 in West 2.4 mph 5.8 mph 52% 0 in CLR
01:50 39.7 °F 24.1 °F 30.3 in West 4 mph 4.6 mph 53% 0 in CLR
01:55 39.6 °F 23.7 °F 30.3 in West 4 mph 3.5 mph 53% 0 in CLR
02:00 39.6 °F 24.3 °F 30.3 in West 2 mph 6 mph 54% 0 in CLR
02:05 39.2 °F 23.9 °F 30.3 in West 2.4 mph 3.5 mph 54% 0 in CLR
02:10 39 °F 24.3 °F 30.3 in SSW 2.4 mph 3.5 mph 55% 0 in CLR
02:15 39 °F 24.6 °F 30.3 in West 2.4 mph 4.6 mph 56% 0 in CLR
02:20 39 °F 25.2 °F 30.3 in West 2.9 mph 2.3 mph 57% 0 in CLR
02:25 38.8 °F 25 °F 30.3 in West 2.9 mph 2.3 mph 57% 0 in CLR
02:30 38.7 °F 25.2 °F 30.3 in West 1.4 mph 2.3 mph 58% 0 in CLR
02:35 38.7 °F 25.5 °F 30.3 in West 1.4 mph 2.3 mph 59% 0 in CLR
02:40 38.5 °F 25.9 °F 30.3 in West 1.4 mph 3.5 mph 60% 0 in CLR
02:45 38.5 °F 26.6 °F 30.3 in SSW 1.4 mph 5.8 mph 62% 0 in CLR
02:50 38.5 °F 27 °F 30.3 in SW 3.6 mph 7.4 mph 63% 0 in CLR
02:55 38.5 °F 27 °F 30.3 in SW 3.6 mph 4.7 mph 63% 0 in CLR
03:00 38.5 °F 26.2 °F 30.3 in SW 5 mph 7 mph 61% 0 in CLR
03:05 38.5 °F 26.2 °F 30.3 in WSW 4 mph 4.6 mph 61% 0 in CLR
03:10 38.5 °F 25.9 °F 30.3 in SSW 4.3 mph 5.8 mph 60% 0 in CLR
03:15 38.3 °F 25.2 °F 30.3 in SSW 4.3 mph 4.6 mph 59% 0 in CLR
03:20 38.3 °F 25.2 °F 30.3 in SSW 3.6 mph 6.9 mph 59% 0 in CLR
03:25 38.1 °F 24.6 °F 30.3 in SSW 3.6 mph 8.1 mph 58% 0 in CLR
03:30 37.9 °F 24.1 °F 30.3 in SW 5.4 mph 6.9 mph 57% 0 in CLR
03:35 37.9 °F 23.5 °F 30.3 in WSW 5.4 mph 6.9 mph 56% 0 in CLR
03:40 38.1 °F 23.4 °F 30.3 in WSW 5.2 mph 4.6 mph 55% 0 in CLR
03:45 38.1 °F 22.8 °F 30.3 in SW 5.2 mph 4.6 mph 54% 0 in CLR
03:50 38.1 °F 23.4 °F 30.3 in SW 3.6 mph 4.6 mph 55% 0 in CLR
03:55 38.1 °F 22.8 °F 30.3 in SW 3.6 mph 6.9 mph 54% 0 in CLR
04:00 38.1 °F 22.8 °F 30.3 in SW 5 mph 7 mph 54% 0 in CLR
04:05 38.3 °F 22.6 °F 30.3 in SW 4 mph 5.8 mph 53% 0 in CLR
04:10 38.5 °F 22.5 °F 30.3 in SW 4.3 mph 6.9 mph 52% 0 in CLR
04:15 38.5 °F 21.9 °F 30.3 in WSW 4.3 mph 4.6 mph 51% 0 in CLR
04:20 38.5 °F 21.4 °F 30.3 in SW 4 mph 4.6 mph 50% 0 in CLR
04:25 38.5 °F 21.4 °F 30.3 in SW 4 mph 5.8 mph 50% 0 in CLR
04:30 38.5 °F 21.4 °F 30.3 in WSW 3.6 mph 4.7 mph 50% 0 in CLR
04:35 38.5 °F 21.4 °F 30.3 in WSW 3.6 mph 3.5 mph 50% 0 in CLR
04:40 38.5 °F 23.4 °F 30.3 in WSW 2.4 mph 1.2 mph 54% 0 in CLR
04:45 38.1 °F 24.6 °F 30.3 in WSW 2.4 mph 2.9 mph 58% 0 in CLR
04:50 37.6 °F 25.7 °F 30.3 in SSE 1.8 mph 3.5 mph 62% 0 in CLR
04:55 36.9 °F 25.9 °F 30.3 in SSE 1.8 mph 4.6 mph 64% 0 in CLR
05:00 36.7 °F 25.5 °F 30.3 in SSE 2 mph 5 mph 64% 0 in CLR
05:05 36.7 °F 26.1 °F 30.3 in SSE 2.9 mph 4.6 mph 65% 0 in CLR
05:10 36.5 °F 25.9 °F 30.3 in SSE 3.1 mph 3.6 mph 65% 0 in CLR
05:15 36.3 °F 25.7 °F 30.3 in SSE 3.1 mph 2.3 mph 65% 0 in CLR
05:20 36.3 °F 25.7 °F 30.3 in SSE 2 mph 2.9 mph 65% 0 in CLR
05:25 36.3 °F 25.3 °F 30.3 in SSE 2 mph 4.6 mph 64% 0 in CLR
05:30 36.5 °F 25.9 °F 30.3 in SE 2.4 mph 4.6 mph 65% 0 in CLR
05:35 36.1 °F 25.9 °F 30.3 in South 2.4 mph 4.6 mph 66% 0 in CLR
05:40 35.8 °F 26.2 °F 30.3 in SSE 3.6 mph 4.7 mph 68% 0 in CLR
05:45 35.2 °F 26.1 °F 30.3 in South 3.6 mph 5.8 mph 69% 0 in CLR
05:50 35.1 °F 26.2 °F 30.3 in SSE 3.6 mph 4.6 mph 70% 0 in CLR
05:55 34.9 °F 26.1 °F 30.3 in SSE 3.6 mph 6.2 mph 70% 0 in CLR
06:00 34.5 °F 26.1 °F 30.3 in SSE 5 mph 6 mph 71% 0 in CLR
06:05 34.3 °F 25.9 °F 30.3 in South 4 mph 4.6 mph 71% 0 in CLR
06:10 34.3 °F 25.9 °F 30.3 in South 4 mph 5.2 mph 71% 0 in CLR
06:15 34.3 °F 25.9 °F 30.3 in South 4 mph 3.5 mph 71% 0 in CLR
06:20 34.3 °F 25.9 °F 30.3 in South 3.1 mph 4.6 mph 71% 0 in CLR
06:25 34.3 °F 25.9 °F 30.3 in South 3.1 mph 4.6 mph 71% 0 in CLR
06:30 34.5 °F 25.7 °F 30.3 in SSE 2.9 mph 4.6 mph 70% 0 in CLR
06:35 34.7 °F 25.5 °F 30.3 in SSE 2.9 mph 4.6 mph 69% 0 in CLR
06:40 34.7 °F 25.2 °F 30.3 in South 3.1 mph 4.6 mph 68% 0 in CLR
06:45 34.7 °F 25 °F 30.3 in SSE 3.1 mph 4.6 mph 67% 0 in CLR
06:50 34.9 °F 25 °F 30.3 in SSE 3.6 mph 5.9 mph 67% 0 in CLR
06:55 34.9 °F 24.6 °F 30.3 in SSE 3.6 mph 4.6 mph 66% 0 in CLR
07:00 34.9 °F 24.6 °F 30.3 in SSE 3 mph 5 mph 66% 0 in CLR
07:05 34.7 °F 24.1 °F 30.3 in South 3.6 mph 3.5 mph 65% 0 in CLR
07:10 34.9 °F 23.9 °F 30.3 in SSW 2.9 mph 5.8 mph 64% 0 in CLR
07:15 35.2 °F 23.9 °F 30.3 in SSW 2.9 mph 3.5 mph 63% 0 in CLR
07:20 35.6 °F 24.3 °F 30.3 in WSW 3.1 mph 3.5 mph 63% 0 in CLR
07:25 35.8 °F 24.1 °F 30.3 in WSW 3.1 mph 5.2 mph 62% 0 in CLR
07:30 35.8 °F 22.8 °F 30.3 in SW 2.9 mph 4.6 mph 59% 0 in CLR
07:35 35.8 °F 22.8 °F 30.4 in SW 2.9 mph 4.7 mph 59% 0 in CLR
07:40 36 °F 23 °F 30.4 in South 3.6 mph 5.8 mph 59% 0 in CLR
07:45 36 °F 23.4 °F 30.4 in SSW 3.6 mph 4.6 mph 60% 0 in CLR
07:50 36 °F 23.7 °F 30.4 in SSW 3.1 mph 4.6 mph 61% 0 in CLR
07:55 35.8 °F 23.5 °F 30.4 in SSW 3.1 mph 3.5 mph 61% 0 in CLR
08:00 35.6 °F 23.7 °F 30.4 in SSW 2 mph 5 mph 62% 0 in CLR
08:05 35.4 °F 23.7 °F 30.4 in SSE 2.9 mph 4.6 mph 62% 0 in CLR
08:10 35.1 °F 23.4 °F 30.4 in South 2.9 mph 3.6 mph 62% 0 in CLR
08:15 34.9 °F 23.2 °F 30.4 in South 2.9 mph 4.6 mph 62% 0 in CLR
08:20 34.9 °F 22.8 °F 30.4 in SW 3.1 mph 4.6 mph 61% 0 in CLR
08:25 35.4 °F 22.5 °F 30.4 in West 3.1 mph 3.6 mph 59% 0 in CLR
08:30 35.8 °F 21.9 °F 30.4 in WSW 3.1 mph 4.6 mph 57% 0 in CLR
08:35 36 °F 21.7 °F 30.4 in WSW 3.1 mph 3.5 mph 56% 0 in CLR
08:40 36.1 °F 22.5 °F 30.4 in SE 2.9 mph 3.6 mph 57% 0 in CLR
08:45 35.6 °F 23.2 °F 30.4 in SE 2.9 mph 4.6 mph 60% 0 in CLR
08:50 35.1 °F 23.4 °F 30.4 in SSE 2.9 mph 4.6 mph 62% 0 in CLR
08:55 34.9 °F 23.5 °F 30.4 in South 2.9 mph 4.6 mph 63% 0 in CLR
09:00 34.7 °F 23.4 °F 30.4 in South 3 mph 5 mph 63% 0 in CLR
09:05 34.9 °F 23.5 °F 30.4 in SSW 3.1 mph 4 mph 63% 0 in CLR
09:10 35.1 °F 23 °F 30.4 in SW 2.9 mph 4.6 mph 61% 0 in CLR
09:15 36 °F 23 °F 30.4 in South 2.9 mph 4.6 mph 59% 0 in CLR
09:20 36.3 °F 23.4 °F 30.4 in South 3.1 mph 4.6 mph 59% 0 in CLR
09:25 36.9 °F 23.4 °F 30.4 in SSW 3.1 mph 4.6 mph 58% 0 in CLR
09:30 37.2 °F 22.8 °F 30.4 in SE 2.9 mph 4.6 mph 56% 0 in CLR
09:35 37.9 °F 24.4 °F 30.4 in SE 2.9 mph 3.5 mph 58% 0 in CLR
09:40 38.1 °F 24.3 °F 30.4 in SSE 2.4 mph 4.6 mph 57% 0 in CLR
09:45 38.1 °F 23.7 °F 30.4 in SE 2.4 mph 4.6 mph 56% 0 in CLR
09:50 38.5 °F 24.1 °F 30.4 in South 3.1 mph 4.6 mph 56% 0 in CLR
09:55 38.7 °F 24.3 °F 30.4 in South 3.1 mph 4.6 mph 56% 0 in CLR
10:00 38.8 °F 23.2 °F 30.4 in SSW 2 mph 5 mph 53% 0 in CLR
10:05 39.4 °F 23.2 °F 30.4 in SW 2.9 mph 4.7 mph 52% 0 in CLR
10:10 39.7 °F 23.2 °F 30.4 in WSW 3.1 mph 3.5 mph 51% 0 in CLR
10:15 40.3 °F 22.1 °F 30.4 in SW 3.1 mph 5.8 mph 48% 0 in CLR
10:20 40.6 °F 22.5 °F 30.4 in WSW 3.6 mph 3.5 mph 48% 0 in CLR
10:25 41.2 °F 22.5 °F 30.4 in South 3.6 mph 4.6 mph 47% 0 in CLR
10:30 41.5 °F 22.3 °F 30.4 in WSW 2.9 mph 4.6 mph 46% 0 in CLR
10:35 41.9 °F 22.6 °F 30.4 in West 2.9 mph 4.6 mph 46% 0 in CLR
10:40 42.4 °F 22.6 °F 30.4 in SW 2.9 mph 3.6 mph 45% 0 in CLR
10:45 43 °F 22.5 °F 30.4 in SW 2.9 mph 6.9 mph 44% 0 in CLR
10:50 43.2 °F 22.1 °F 30.4 in SW 4 mph 8.1 mph 43% 0 in CLR
10:55 43.3 °F 22.3 °F 30.4 in SW 4 mph 6.9 mph 43% 0 in CLR
11:00 43.5 °F 21.9 °F 30.4 in SW 5 mph 7 mph 42% 0 in CLR
11:05 44.1 °F 22.5 °F 30.4 in South 4.3 mph 7.6 mph 42% 0 in CLR
11:10 44.1 °F 22.5 °F 30.4 in SW 4.3 mph 8.1 mph 42% 0 in CLR
11:15 43.9 °F 22.3 °F 30.4 in SW 4.3 mph 6.9 mph 42% 0 in CLR
11:20 44.2 °F 22.6 °F 30.4 in SSW 5.4 mph 8.1 mph 42% 0 in CLR
11:25 44.6 °F 22.8 °F 30.4 in SSW 5.4 mph 8.7 mph 42% 0 in CLR
11:30 44.8 °F 23.2 °F 30.4 in SSE 5.2 mph 9.2 mph 42% 0 in CLR
11:35 45.1 °F 23.4 °F 30.4 in WSW 5.2 mph 5.8 mph 42% 0 in CLR
11:40 45.3 °F 23 °F 30.4 in SSW 4.7 mph 6.9 mph 41% 0 in CLR
11:45 45.9 °F 23.5 °F 30.4 in SW 4.7 mph 4.6 mph 41% 0 in CLR
11:50 46 °F 23.5 °F 30.4 in SW 4 mph 5.8 mph 41% 0 in CLR
11:55 46.4 °F 23.9 °F 30.4 in SW 4 mph 6.9 mph 41% 0 in CLR
12:00 46.8 °F 23.5 °F 30.4 in SW 5 mph 9 mph 40% 0 in CLR
12:05 46.8 °F 23.7 °F 30.4 in West 4 mph 6.9 mph 40% 0 in CLR
12:10 47.1 °F 24.1 °F 30.4 in South 4.7 mph 6.9 mph 40% 0 in CLR
12:15 47.5 °F 23.2 °F 30.4 in West 4.7 mph 8.1 mph 38% 0 in CLR
12:20 47.8 °F 23.4 °F 30.4 in SW 4.7 mph 6.9 mph 38% 0 in CLR
12:25 48 °F 23 °F 30.4 in South 4.7 mph 8.1 mph 37% 0 in CLR
12:30 48.6 °F 22.8 °F 30.4 in WSW 4.3 mph 5.8 mph 36% 0 in CLR
12:35 48.7 °F 22.8 °F 30.4 in West 4.3 mph 6.9 mph 36% 0 in CLR
12:40 48.9 °F 22.5 °F 30.4 in South 4 mph 5.8 mph 35% 0 in CLR
12:45 49.5 °F 22.8 °F 30.4 in West 4 mph 5.9 mph 35% 0 in CLR
12:50 49.6 °F 22.5 °F 30.4 in WSW 4 mph 8.1 mph 34% 0 in CLR
12:55 49.8 °F 22.5 °F 30.4 in South 4 mph 5.8 mph 34% 0 in CLR
13:00 50 °F 22.6 °F 30.4 in SSW 5 mph 7 mph 34% 0 in CLR
13:05 50.4 °F 23 °F 30.4 in WSW 4.7 mph 5.8 mph 34% 0 in CLR
13:10 50.5 °F 23.2 °F 30.4 in SW 4.3 mph 6.9 mph 34% 0 in CLR
13:15 50.9 °F 22.8 °F 30.4 in SSW 4.3 mph 5.9 mph 33% 0 in CLR
13:20 51.1 °F 22.8 °F 30.4 in West 3.6 mph 5.8 mph 33% 0 in CLR
13:25 51.3 °F 23.2 °F 30.4 in SE 3.6 mph 6.4 mph 33% 0 in CLR
13:30 51.4 °F 23.4 °F 30.4 in SE 3.6 mph 6.9 mph 33% 0 in CLR
13:35 52 °F 23.7 °F 30.3 in SSE 3.6 mph 4.6 mph 33% 0 in CLR
13:40 52.2 °F 23.9 °F 30.3 in South 4 mph 4.6 mph 33% 0 in CLR
13:45 52.5 °F 23.5 °F 30.3 in SE 4 mph 4.6 mph 32% 0 in CLR
13:50 52.7 °F 24.4 °F 30.3 in WSW 3.1 mph 5.8 mph 33% 0 in CLR
13:55 52.9 °F 24.4 °F 30.3 in SW 3.1 mph 4.6 mph 33% 0 in CLR
14:00 53.1 °F 24.6 °F 30.3 in SW 3 mph 7 mph 33% 0 in CLR
14:05 53.1 °F 24.6 °F 30.3 in WNW 3.1 mph 4.7 mph 33% 0 in CLR
14:10 53.1 °F 25.3 °F 30.3 in SW 3.1 mph 5.8 mph 34% 0 in CLR
14:15 53.2 °F 25.5 °F 30.3 in ESE 3.1 mph 2.3 mph 34% 0 in CLR
14:20 53.6 °F 25.9 °F 30.3 in West 2.4 mph 2.9 mph 34% 0 in CLR
14:25 54.1 °F 26.4 °F 30.3 in SSW 2.4 mph 4.3 mph 34% 0 in CLR
14:30 54.1 °F 27.1 °F 30.3 in SSW 2 mph 3.5 mph 35% 0 in CLR
14:35 54.5 °F 27.3 °F 30.3 in South 2 mph 4.6 mph 35% 0 in CLR
14:40 54.9 °F 28.4 °F 30.3 in South 1.8 mph 2.3 mph 36% 0 in CLR
14:45 55 °F 29.8 °F 30.3 in SSW 1.8 mph 4.7 mph 38% 0 in CLR
14:50 54.9 °F 30.4 °F 30.3 in SSW 2.9 mph 2.3 mph 39% 0 in CLR
14:55 55 °F 28.6 °F 30.3 in WSW 2.9 mph 4.6 mph 36% 0 in CLR
15:00 55.2 °F 28.8 °F 30.3 in SW 2 mph 4 mph 36% 0 in CLR
15:05 55.6 °F 28.2 °F 30.3 in SSW 2 mph 4.6 mph 35% 0 in CLR
15:10 55.6 °F 28.2 °F 30.3 in SSW 2 mph 2.3 mph 35% 0 in CLR
15:15 55.9 °F 27.1 °F 30.3 in WNW 2 mph 4.6 mph 33% 0 in CLR
15:20 55.9 °F 26.4 °F 30.3 in WNW 2 mph 4.6 mph 32% 0 in CLR
15:25 55.9 °F 26.4 °F 30.3 in WSW 2 mph 4.6 mph 32% 0 in CLR
15:30 55.8 °F 24.8 °F 30.3 in WSW 2.9 mph 2.3 mph 30% 0 in CLR
15:35 55.9 °F 25 °F 30.3 in WNW 2.9 mph 3.5 mph 30% 0 in CLR
15:40 56.1 °F 24.3 °F 30.3 in WNW 2 mph 2.9 mph 29% 0 in CLR
15:45 56.5 °F 25.3 °F 30.3 in WNW 2 mph 2.3 mph 30% 0 in CLR
15:50 56.7 °F 24.6 °F 30.3 in WNW 1.8 mph 3.5 mph 29% 0 in CLR
15:55 57 °F 25 °F 30.3 in WNW 1.8 mph 2.9 mph 29% 0 in CLR
16:00 57.4 °F 25.3 °F 30.3 in West 2 mph 4 mph 29% 0 in CLR
16:05 57.6 °F 25.5 °F 30.3 in West 1.8 mph   29% 0 in CLR
16:10 57.7 °F 25.7 °F 30.3 in West 1.8 mph 2.3 mph 29% 0 in CLR
16:15 57.7 °F 24.8 °F 30.3 in West 1.8 mph 3.5 mph 28% 0 in CLR
16:20 57.7 °F 25.7 °F 30.3 in WNW 1.8 mph 3.5 mph 29% 0 in CLR
16:25 57.9 °F 25 °F 30.3 in WNW 1.8 mph 3.1 mph 28% 0 in CLR
16:30 57.9 °F 25 °F 30.3 in WNW 1.8 mph 2.3 mph 28% 0 in CLR
16:35 57.9 °F 25 °F 30.3 in WNW 1.8 mph 1.4 mph 28% 0 in CLR
16:40 58.3 °F 24.4 °F 30.3 in WNW 1.4 mph 3.5 mph 27% 0 in CLR
16:45 58.6 °F 25.5 °F 30.3 in WNW 1.4 mph 1.2 mph 28% 0 in CLR
16:50 58.6 °F 24.6 °F 30.3 in WNW 1.4 mph   27% 0 in CLR
16:55 58.5 °F 24.6 °F 30.3 in WNW 1.4 mph 3.5 mph 27% 0 in CLR
17:00 58.3 °F 24.3 °F 30.3 in WNW 1 mph 3 mph 27% 0 in CLR
17:05 57.7 °F 23.9 °F 30.3 in WNW 1.4 mph 2.3 mph 27% 0 in CLR
17:10 57.6 °F 24.6 °F 30.3 in WNW 1.8 mph 1.2 mph 28% 0 in CLR
17:15 57.6 °F 24.6 °F 30.3 in WNW 1.8 mph 2.9 mph 28% 0 in CLR
17:20 57.6 °F 24.6 °F 30.3 in WNW 1.4 mph   28% 0 in CLR
17:25 57.7 °F 24.8 °F 30.3 in WNW 1.4 mph   28% 0 in CLR
17:30 57.7 °F 24.8 °F 30.3 in Calm     28% 0 in CLR
17:35 57.9 °F 25 °F 30.3 in Calm   3.5 mph 28% 0 in CLR
17:40 57.6 °F 25.5 °F 30.3 in WNW 1.4 mph 3.5 mph 29% 0 in CLR
17:45 56.8 °F 25 °F 30.3 in WNW 1.4 mph 3.5 mph 29% 0 in CLR
17:50 56.5 °F 25.3 °F 30.3 in WNW 2.4 mph 3.5 mph 30% 0 in CLR
17:55 56.3 °F 25.2 °F 30.3 in WNW 2.4 mph 2.3 mph 30% 0 in CLR
18:00 55.9 °F 25.7 °F 30.3 in WNW 2 mph 3 mph 31% 0 in CLR
18:05 55.8 °F 25.5 °F 30.3 in WNW 2 mph 2.3 mph 31% 0 in CLR
18:10 55.6 °F 26.2 °F 30.3 in ESE 1.8 mph 4.6 mph 32% 0 in CLR
18:15 55 °F 26.4 °F 30.3 in ESE 1.8 mph 4.6 mph 33% 0 in CLR
18:20 54.7 °F 26.8 °F 30.3 in ESE 2.4 mph 3.6 mph 34% 0 in CLR
18:25 54.3 °F 27.1 °F 30.3 in ESE 2.4 mph 3.5 mph 35% 0 in CLR
18:30 54 °F 27.7 °F 30.3 in ESE 2.4 mph 2.9 mph 36% 0 in CLR
18:35 53.8 °F 28 °F 30.3 in ESE 2.4 mph 2.4 mph 37% 0 in CLR
18:40 53.4 °F 27.9 °F 30.3 in ESE 2 mph 2.3 mph 37% 0 in CLR
18:45 53.2 °F 28.2 °F 30.3 in ESE 2 mph 3.5 mph 38% 0 in CLR
18:50 53.1 °F 28.8 °F 30.3 in ESE 1.8 mph 2.3 mph 39% 0 in CLR
18:55 52.5 °F 28.9 °F 30.3 in ESE 1.8 mph 2.4 mph 40% 0 in CLR
19:00 52.3 °F 29.3 °F 30.3 in ESE 2 mph 3 mph 41% 0 in CLR
19:05 52 °F 29.7 °F 30.3 in ESE 1.8 mph 2.4 mph 42% 0 in CLR
19:10 51.6 °F 29.8 °F 30.3 in ESE 1.4 mph 4.6 mph 43% 0 in CLR
19:15 51.3 °F 29.5 °F 30.3 in ESE 1.4 mph 4.6 mph 43% 0 in CLR
19:20 50.9 °F 29.7 °F 30.3 in ESE 2.4 mph 4.6 mph 44% 0 in CLR
19:25 50.7 °F 30 °F 30.3 in SE 2.4 mph 5.8 mph 45% 0 in CLR
19:30 50.5 °F 30 °F 30.3 in SE 3.1 mph 2.4 mph 45% 0 in CLR
19:35 50.5 °F 30.6 °F 30.3 in SE 3.1 mph 1.2 mph 46% 0 in CLR
19:40 50.4 °F 30.4 °F 30.3 in SE 1.4 mph 2.3 mph 46% 0 in CLR
19:45 50 °F 29.5 °F 30.3 in WSW 1.4 mph 4.7 mph 45% 0 in CLR
19:50 49.6 °F 29.1 °F 30.3 in WSW 2.4 mph 4.6 mph 45% 0 in CLR
19:55 49.5 °F 28.4 °F 30.3 in WSW 2.4 mph 3.5 mph 44% 0 in CLR
20:00 49.6 °F 29.1 °F 30.3 in WSW 2 mph 4 mph 45% 0 in CLR
20:05 49.5 °F 28.9 °F 30.3 in WSW 2.9 mph 4.6 mph 45% 0 in CLR
20:10 49.5 °F 28.9 °F 30.3 in SW 2.4 mph 4.6 mph 45% 0 in CLR
20:15 49.3 °F 29.5 °F 30.3 in WSW 2.4 mph 4.6 mph 46% 0 in CLR
20:20 49.1 °F 29.1 °F 30.3 in WSW 2.4 mph 4.6 mph 46% 0 in CLR
20:25 48.7 °F 29.5 °F 30.3 in WSW 2.4 mph 3.5 mph 47% 0 in CLR
20:30 48.6 °F 29.7 °F 30.3 in WSW 2.9 mph 4.6 mph 48% 0 in CLR
20:35 48.4 °F 29.7 °F 30.3 in WSW 2.9 mph 2.3 mph 48% 0 in CLR
20:40 48.2 °F 30.4 °F 30.3 in WSW 2 mph 3.5 mph 50% 0 in CLR
20:45 48 °F 30.2 °F 30.3 in WSW 2 mph 3.5 mph 50% 0 in CLR
20:50 48 °F 30.7 °F 30.3 in WSW 2.4 mph 4.6 mph 51% 0 in CLR
20:55 47.8 °F 30.9 °F 30.3 in South 2.4 mph 4.6 mph 52% 0 in CLR
21:00 47.7 °F 30.9 °F 30.3 in South 3 mph 5 mph 52% 0 in CLR
21:05 47.5 °F 31.3 °F 30.3 in South 3.1 mph 4.6 mph 53% 0 in CLR
21:10 47.3 °F 30.9 °F 30.3 in South 3.1 mph 4.6 mph 53% 0 in CLR
21:15 47.1 °F 30.9 °F 30.3 in South 3.1 mph 2.9 mph 53% 0 in CLR
21:20 47.1 °F 31.3 °F 30.3 in South 2.4 mph 2.4 mph 54% 0 in CLR
21:25 47.1 °F 31.8 °F 30.3 in South 2.4 mph   55% 0 in CLR
21:30 46.9 °F 31.6 °F 30.3 in South 1.4 mph 4.6 mph 55% 0 in CLR
21:35 46.8 °F 31.5 °F 30.3 in South 1.4 mph 4.6 mph 55% 0 in CLR
21:40 46.8 °F 31.5 °F 30.3 in South 2.9 mph 2.3 mph 55% 0 in CLR
21:45 46.6 °F 31.6 °F 30.3 in South 2.9 mph 3.5 mph 56% 0 in CLR
21:50 46.4 °F 31.5 °F 30.3 in South 2 mph 3.5 mph 56% 0 in CLR
21:55 46.2 °F 31.5 °F 30.3 in South 2 mph 2 mph 56% 0 in CLR
22:00 46.2 °F 31.5 °F 30.3 in South 1 mph 3 mph 56% 0 in CLR
22:05 46 °F 31.6 °F 30.3 in South 1.4 mph 4.6 mph 57% 0 in CLR
22:10 45.7 °F 31.3 °F 30.3 in SSE 2 mph 5.8 mph 57% 0 in CLR
22:15 45 °F 31.1 °F 30.3 in SE 2 mph 5.8 mph 58% 0 in CLR
22:20 44.4 °F 30.9 °F 30.3 in SW 4.3 mph 5.8 mph 59% 0 in CLR
22:25 44.2 °F 30.7 °F 30.3 in WSW 4.3 mph 6.9 mph 59% 0 in CLR
22:30 44.4 °F 30.9 °F 30.3 in WSW 4.7 mph 5.8 mph 59% 0 in CLR
22:35 44.4 °F 30.6 °F 30.3 in WSW 4.7 mph 4.6 mph 58% 0 in CLR
22:40 44.4 °F 30.6 °F 30.3 in WSW 4 mph 4.6 mph 58% 0 in CLR
22:45 44.2 °F 30.4 °F 30.3 in WSW 4 mph 3.5 mph 58% 0 in CLR
22:50 44.4 °F 30.6 °F 30.3 in South 2.4 mph 4.6 mph 58% 0 in CLR
22:55 44.2 °F 30.7 °F 30.3 in South 2.4 mph 4.6 mph 59% 0 in CLR
23:00 44.1 °F 30.6 °F 30.3 in South 3 mph 6 mph 59% 0 in CLR
23:05 43.5 °F 30.6 °F 30.3 in South 3.1 mph 4.6 mph 60% 0 in CLR
23:10 43.5 °F 30.9 °F 30.3 in South 3.6 mph 4.6 mph 61% 0 in CLR
23:15 43.5 °F 31.5 °F 30.3 in South 3.6 mph 4.6 mph 62% 0 in CLR
23:20 43.5 °F 31.5 °F 30.3 in South 3.1 mph 4.6 mph 62% 0 in CLR
23:25 43.5 °F 31.5 °F 30.3 in South 3.1 mph 5.8 mph 62% 0 in CLR
23:30 43.3 °F 31.6 °F 30.3 in South 4 mph 6.9 mph 63% 0 in CLR
23:35 43.2 °F 31.5 °F 30.3 in South 4 mph 9.2 mph 63% 0 in CLR
23:40 43 °F 31.6 °F 30.3 in SSW 5.9 mph 6.9 mph 64% 0 in CLR
23:45 42.8 °F 31.5 °F 30.3 in South 5.9 mph 6.9 mph 64% 0 in CLR
23:50 42.8 °F 31.5 °F 30.3 in South 5.2 mph 5.8 mph 64% 0 in CLR
23:55 42.8 °F 31.5 °F 30.3 in South 5.2 mph 5.8 mph 64% 0 in CLR
Murcia-Puente Tocinos, España
Compliments of Weather Underground - 2.75 mb

La estación de MeteoMurcia.com, publica sus datos en los siguientes proyectos:

Weather Underground PWS IMURCIAP2 Meteoclimatic www.awekas.at

W3Counter
Web Analytics